sensor_id;sensor_type;location;lat;lon;timestamp;P1;durP1;ratioP1;P2;durP2;ratioP2
22268;SDS011;11303;50.772;19.670;2022-09-12T00:00:27;55.03;;;30.58;;
22268;SDS011;11303;50.772;19.670;2022-09-12T00:02:28;51.67;;;29.80;;
22268;SDS011;11303;50.772;19.670;2022-09-12T00:04:30;54.75;;;30.15;;
22268;SDS011;11303;50.772;19.670;2022-09-12T00:06:32;55.85;;;30.73;;
22268;SDS011;11303;50.772;19.670;2022-09-12T00:08:35;54.60;;;29.92;;
22268;SDS011;11303;50.772;19.670;2022-09-12T00:10:41;57.63;;;31.13;;
22268;SDS011;11303;50.772;19.670;2022-09-12T00:12:43;52.70;;;31.95;;
22268;SDS011;11303;50.772;19.670;2022-09-12T00:14:45;55.38;;;31.48;;
22268;SDS011;11303;50.772;19.670;2022-09-12T00:16:47;56.00;;;31.50;;
22268;SDS011;11303;50.772;19.670;2022-09-12T00:18:48;60.97;;;32.65;;
22268;SDS011;11303;50.772;19.670;2022-09-12T00:20:50;61.90;;;32.78;;
22268;SDS011;11303;50.772;19.670;2022-09-12T00:22:52;58.10;;;32.63;;
22268;SDS011;11303;50.772;19.670;2022-09-12T00:24:53;63.35;;;31.83;;
22268;SDS011;11303;50.772;19.670;2022-09-12T00:26:55;54.08;;;30.98;;
22268;SDS011;11303;50.772;19.670;2022-09-12T00:28:57;59.50;;;31.80;;
22268;SDS011;11303;50.772;19.670;2022-09-12T00:30:58;62.65;;;31.45;;
22268;SDS011;11303;50.772;19.670;2022-09-12T00:33:00;61.63;;;33.47;;
22268;SDS011;11303;50.772;19.670;2022-09-12T00:35:01;65.50;;;33.38;;
22268;SDS011;11303;50.772;19.670;2022-09-12T00:37:03;64.38;;;32.58;;
22268;SDS011;11303;50.772;19.670;2022-09-12T00:39:05;61.67;;;32.65;;
22268;SDS011;11303;50.772;19.670;2022-09-12T00:41:18;64.85;;;32.55;;
22268;SDS011;11303;50.772;19.670;2022-09-12T00:45:39;63.53;;;31.58;;
22268;SDS011;11303;50.772;19.670;2022-09-12T00:47:42;66.35;;;31.48;;
22268;SDS011;11303;50.772;19.670;2022-09-12T00:49:52;58.38;;;31.50;;
22268;SDS011;11303;50.772;19.670;2022-09-12T00:54:02;63.22;;;32.13;;
22268;SDS011;11303;50.772;19.670;2022-09-12T00:56:06;66.07;;;33.28;;
22268;SDS011;11303;50.772;19.670;2022-09-12T00:58:12;62.47;;;32.40;;
22268;SDS011;11303;50.772;19.670;2022-09-12T01:00:17;61.22;;;31.80;;
22268;SDS011;11303;50.772;19.670;2022-09-12T01:02:21;65.30;;;32.13;;
22268;SDS011;11303;50.772;19.670;2022-09-12T01:04:24;62.80;;;33.60;;
22268;SDS011;11303;50.772;19.670;2022-09-12T01:06:27;62.35;;;32.80;;
22268;SDS011;11303;50.772;19.670;2022-09-12T01:08:33;62.05;;;32.72;;
22268;SDS011;11303;50.772;19.670;2022-09-12T01:10:37;66.15;;;33.95;;
22268;SDS011;11303;50.772;19.670;2022-09-12T01:12:40;65.80;;;34.33;;
22268;SDS011;11303;50.772;19.670;2022-09-12T01:14:43;65.20;;;34.63;;
22268;SDS011;11303;50.772;19.670;2022-09-12T01:16:45;67.90;;;37.35;;
22268;SDS011;11303;50.772;19.670;2022-09-12T01:18:54;77.18;;;38.33;;
22268;SDS011;11303;50.772;19.670;2022-09-12T01:21:05;78.13;;;37.55;;
22268;SDS011;11303;50.772;19.670;2022-09-12T01:25:27;74.22;;;36.95;;
22268;SDS011;11303;50.772;19.670;2022-09-12T01:29:44;75.05;;;36.22;;
22268;SDS011;11303;50.772;19.670;2022-09-12T01:31:52;78.70;;;37.03;;
22268;SDS011;11303;50.772;19.670;2022-09-12T01:38:26;68.20;;;35.92;;
22268;SDS011;11303;50.772;19.670;2022-09-12T01:40:44;70.15;;;36.33;;
22268;SDS011;11303;50.772;19.670;2022-09-12T01:45:06;75.03;;;36.80;;
22268;SDS011;11303;50.772;19.670;2022-09-12T01:47:22;77.65;;;35.78;;
22268;SDS011;11303;50.772;19.670;2022-09-12T01:49:29;74.95;;;35.75;;
22268;SDS011;11303;50.772;19.670;2022-09-12T01:51:38;75.95;;;36.65;;
22268;SDS011;11303;50.772;19.670;2022-09-12T01:53:47;68.72;;;35.75;;
22268;SDS011;11303;50.772;19.670;2022-09-12T01:55:54;70.07;;;35.72;;
22268;SDS011;11303;50.772;19.670;2022-09-12T02:00:10;74.43;;;37.28;;
22268;SDS011;11303;50.772;19.670;2022-09-12T02:02:14;71.95;;;37.70;;
22268;SDS011;11303;50.772;19.670;2022-09-12T02:04:18;75.18;;;38.00;;
22268;SDS011;11303;50.772;19.670;2022-09-12T02:06:24;71.45;;;37.33;;
22268;SDS011;11303;50.772;19.670;2022-09-12T02:08:51;66.53;;;35.50;;
22268;SDS011;11303;50.772;19.670;2022-09-12T02:10:55;75.97;;;37.72;;
22268;SDS011;11303;50.772;19.670;2022-09-12T02:13:00;65.63;;;35.42;;
22268;SDS011;11303;50.772;19.670;2022-09-12T02:15:07;72.32;;;37.30;;
22268;SDS011;11303;50.772;19.670;2022-09-12T02:17:13;72.55;;;37.33;;
22268;SDS011;11303;50.772;19.670;2022-09-12T02:19:18;67.35;;;34.67;;
22268;SDS011;11303;50.772;19.670;2022-09-12T02:21:21;68.88;;;36.15;;
22268;SDS011;11303;50.772;19.670;2022-09-12T02:23:25;71.30;;;35.80;;
22268;SDS011;11303;50.772;19.670;2022-09-12T02:25:29;70.25;;;36.58;;
22268;SDS011;11303;50.772;19.670;2022-09-12T02:27:41;70.22;;;35.10;;
22268;SDS011;11303;50.772;19.670;2022-09-12T02:29:45;71.85;;;35.30;;
22268;SDS011;11303;50.772;19.670;2022-09-12T02:31:47;65.07;;;35.15;;
22268;SDS011;11303;50.772;19.670;2022-09-12T02:34:07;76.78;;;36.42;;
22268;SDS011;11303;50.772;19.670;2022-09-12T02:36:42;68.10;;;35.55;;
22268;SDS011;11303;50.772;19.670;2022-09-12T02:38:50;66.70;;;34.97;;
22268;SDS011;11303;50.772;19.670;2022-09-12T02:40:51;63.05;;;34.90;;
22268;SDS011;11303;50.772;19.670;2022-09-12T02:42:53;73.80;;;34.97;;
22268;SDS011;11303;50.772;19.670;2022-09-12T02:44:55;64.97;;;34.67;;
22268;SDS011;11303;50.772;19.670;2022-09-12T02:46:59;57.83;;;34.05;;
22268;SDS011;11303;50.772;19.670;2022-09-12T02:49:06;64.70;;;33.40;;
22268;SDS011;11303;50.772;19.670;2022-09-12T02:51:10;58.78;;;31.35;;
22268;SDS011;11303;50.772;19.670;2022-09-12T02:53:12;60.40;;;32.45;;
22268;SDS011;11303;50.772;19.670;2022-09-12T02:55:13;53.33;;;31.20;;
22268;SDS011;11303;50.772;19.670;2022-09-12T02:57:17;54.60;;;31.38;;
22268;SDS011;11303;50.772;19.670;2022-09-12T02:59:23;58.47;;;31.20;;
22268;SDS011;11303;50.772;19.670;2022-09-12T03:01:28;56.10;;;31.95;;
22268;SDS011;11303;50.772;19.670;2022-09-12T03:05:54;54.17;;;31.05;;
22268;SDS011;11303;50.772;19.670;2022-09-12T03:08:01;52.05;;;31.08;;
22268;SDS011;11303;50.772;19.670;2022-09-12T03:10:10;59.60;;;29.87;;
22268;SDS011;11303;50.772;19.670;2022-09-12T03:12:18;58.38;;;29.83;;
22268;SDS011;11303;50.772;19.670;2022-09-12T03:16:52;49.50;;;29.13;;
22268;SDS011;11303;50.772;19.670;2022-09-12T03:24:11;41.92;;;22.67;;
22268;SDS011;11303;50.772;19.670;2022-09-12T03:26:19;53.25;;;28.83;;
22268;SDS011;11303;50.772;19.670;2022-09-12T03:28:23;52.72;;;29.42;;
22268;SDS011;11303;50.772;19.670;2022-09-12T03:30:26;50.03;;;28.45;;
22268;SDS011;11303;50.772;19.670;2022-09-12T03:34:41;50.03;;;29.52;;
22268;SDS011;11303;50.772;19.670;2022-09-12T03:36:43;57.78;;;30.17;;
22268;SDS011;11303;50.772;19.670;2022-09-12T03:38:44;58.28;;;29.60;;
22268;SDS011;11303;50.772;19.670;2022-09-12T03:40:46;54.88;;;30.20;;
22268;SDS011;11303;50.772;19.670;2022-09-12T03:42:54;48.95;;;28.80;;
22268;SDS011;11303;50.772;19.670;2022-09-12T03:44:55;55.85;;;29.13;;
22268;SDS011;11303;50.772;19.670;2022-09-12T03:46:57;50.95;;;28.23;;
22268;SDS011;11303;50.772;19.670;2022-09-12T03:48:58;60.35;;;30.00;;
22268;SDS011;11303;50.772;19.670;2022-09-12T03:51:00;50.75;;;29.83;;
22268;SDS011;11303;50.772;19.670;2022-09-12T03:53:03;55.78;;;30.30;;
22268;SDS011;11303;50.772;19.670;2022-09-12T03:55:05;58.97;;;31.88;;
22268;SDS011;11303;50.772;19.670;2022-09-12T03:57:07;57.20;;;32.13;;
22268;SDS011;11303;50.772;19.670;2022-09-12T03:59:08;52.88;;;30.08;;
22268;SDS011;11303;50.772;19.670;2022-09-12T04:01:11;58.00;;;31.15;;
22268;SDS011;11303;50.772;19.670;2022-09-12T04:03:14;63.63;;;31.58;;
22268;SDS011;11303;50.772;19.670;2022-09-12T04:05:15;55.47;;;29.88;;
22268;SDS011;11303;50.772;19.670;2022-09-12T04:07:17;56.92;;;30.42;;
22268;SDS011;11303;50.772;19.670;2022-09-12T04:09:18;62.78;;;31.45;;
22268;SDS011;11303;50.772;19.670;2022-09-12T04:11:20;55.85;;;30.33;;
22268;SDS011;11303;50.772;19.670;2022-09-12T04:13:22;54.38;;;31.73;;
22268;SDS011;11303;50.772;19.670;2022-09-12T04:15:24;58.83;;;32.17;;
22268;SDS011;11303;50.772;19.670;2022-09-12T04:17:25;61.78;;;33.08;;
22268;SDS011;11303;50.772;19.670;2022-09-12T04:19:27;58.10;;;32.88;;
22268;SDS011;11303;50.772;19.670;2022-09-12T04:21:28;68.45;;;34.95;;
22268;SDS011;11303;50.772;19.670;2022-09-12T04:23:31;60.50;;;33.55;;
22268;SDS011;11303;50.772;19.670;2022-09-12T04:25:32;60.65;;;34.40;;
22268;SDS011;11303;50.772;19.670;2022-09-12T04:27:34;67.20;;;34.50;;
22268;SDS011;11303;50.772;19.670;2022-09-12T04:29:36;61.22;;;34.00;;
22268;SDS011;11303;50.772;19.670;2022-09-12T04:31:38;58.13;;;31.95;;
22268;SDS011;11303;50.772;19.670;2022-09-12T04:33:39;57.63;;;32.85;;
22268;SDS011;11303;50.772;19.670;2022-09-12T04:35:41;65.75;;;33.45;;
22268;SDS011;11303;50.772;19.670;2022-09-12T04:37:43;58.22;;;32.78;;
22268;SDS011;11303;50.772;19.670;2022-09-12T04:39:44;56.15;;;31.33;;
22268;SDS011;11303;50.772;19.670;2022-09-12T04:41:46;59.90;;;30.17;;
22268;SDS011;11303;50.772;19.670;2022-09-12T04:43:50;54.28;;;31.20;;
22268;SDS011;11303;50.772;19.670;2022-09-12T04:46:03;56.95;;;30.60;;
22268;SDS011;11303;50.772;19.670;2022-09-12T04:48:05;55.47;;;30.80;;
22268;SDS011;11303;50.772;19.670;2022-09-12T04:50:07;50.33;;;29.92;;
22268;SDS011;11303;50.772;19.670;2022-09-12T04:52:09;54.38;;;31.52;;
22268;SDS011;11303;50.772;19.670;2022-09-12T04:54:11;63.30;;;33.95;;
22268;SDS011;11303;50.772;19.670;2022-09-12T04:56:15;60.28;;;33.10;;
22268;SDS011;11303;50.772;19.670;2022-09-12T04:58:17;68.10;;;33.33;;
22268;SDS011;11303;50.772;19.670;2022-09-12T05:00:18;66.93;;;34.70;;
22268;SDS011;11303;50.772;19.670;2022-09-12T05:02:20;65.25;;;34.85;;
22268;SDS011;11303;50.772;19.670;2022-09-12T05:04:22;69.50;;;35.25;;
22268;SDS011;11303;50.772;19.670;2022-09-12T05:06:28;68.18;;;35.00;;
22268;SDS011;11303;50.772;19.670;2022-09-12T05:08:31;69.40;;;35.78;;
22268;SDS011;11303;50.772;19.670;2022-09-12T05:10:33;68.32;;;37.90;;
22268;SDS011;11303;50.772;19.670;2022-09-12T05:12:35;70.05;;;38.45;;
22268;SDS011;11303;50.772;19.670;2022-09-12T05:14:37;72.03;;;34.95;;
22268;SDS011;11303;50.772;19.670;2022-09-12T05:16:38;71.85;;;39.72;;
22268;SDS011;11303;50.772;19.670;2022-09-12T05:18:41;80.68;;;43.00;;
22268;SDS011;11303;50.772;19.670;2022-09-12T05:20:44;91.97;;;45.03;;
22268;SDS011;11303;50.772;19.670;2022-09-12T05:22:46;78.45;;;43.58;;
22268;SDS011;11303;50.772;19.670;2022-09-12T05:24:47;88.45;;;44.25;;
22268;SDS011;11303;50.772;19.670;2022-09-12T05:26:58;85.72;;;43.45;;
22268;SDS011;11303;50.772;19.670;2022-09-12T05:28:59;96.97;;;45.70;;
22268;SDS011;11303;50.772;19.670;2022-09-12T05:31:05;89.05;;;46.15;;
22268;SDS011;11303;50.772;19.670;2022-09-12T05:33:07;90.35;;;44.72;;
22268;SDS011;11303;50.772;19.670;2022-09-12T05:35:08;80.85;;;43.83;;
22268;SDS011;11303;50.772;19.670;2022-09-12T05:37:10;80.07;;;41.33;;
22268;SDS011;11303;50.772;19.670;2022-09-12T05:39:11;86.30;;;43.75;;
22268;SDS011;11303;50.772;19.670;2022-09-12T05:41:14;82.50;;;42.67;;
22268;SDS011;11303;50.772;19.670;2022-09-12T05:43:25;79.80;;;37.92;;
22268;SDS011;11303;50.772;19.670;2022-09-12T05:45:26;84.50;;;45.63;;
22268;SDS011;11303;50.772;19.670;2022-09-12T05:47:28;84.22;;;41.10;;
22268;SDS011;11303;50.772;19.670;2022-09-12T05:49:29;78.07;;;39.53;;
22268;SDS011;11303;50.772;19.670;2022-09-12T05:51:31;79.65;;;43.80;;
22268;SDS011;11303;50.772;19.670;2022-09-12T05:53:35;82.05;;;43.10;;
22268;SDS011;11303;50.772;19.670;2022-09-12T05:55:37;84.05;;;42.33;;
22268;SDS011;11303;50.772;19.670;2022-09-12T05:57:39;83.28;;;42.95;;
22268;SDS011;11303;50.772;19.670;2022-09-12T05:59:46;75.72;;;40.85;;
22268;SDS011;11303;50.772;19.670;2022-09-12T06:01:47;76.68;;;41.38;;
22268;SDS011;11303;50.772;19.670;2022-09-12T06:03:50;63.97;;;36.33;;
22268;SDS011;11303;50.772;19.670;2022-09-12T06:05:52;59.10;;;31.77;;
22268;SDS011;11303;50.772;19.670;2022-09-12T06:07:54;68.43;;;38.47;;
22268;SDS011;11303;50.772;19.670;2022-09-12T06:09:56;68.75;;;38.03;;
22268;SDS011;11303;50.772;19.670;2022-09-12T06:11:59;71.13;;;37.22;;
22268;SDS011;11303;50.772;19.670;2022-09-12T06:14:00;57.55;;;34.67;;
22268;SDS011;11303;50.772;19.670;2022-09-12T06:16:03;72.38;;;38.97;;
22268;SDS011;11303;50.772;19.670;2022-09-12T06:18:06;59.28;;;37.65;;
22268;SDS011;11303;50.772;19.670;2022-09-12T06:20:07;60.00;;;36.25;;
22268;SDS011;11303;50.772;19.670;2022-09-12T06:22:09;55.92;;;36.70;;
22268;SDS011;11303;50.772;19.670;2022-09-12T06:24:11;50.90;;;33.17;;
22268;SDS011;11303;50.772;19.670;2022-09-12T06:26:14;46.25;;;32.75;;
22268;SDS011;11303;50.772;19.670;2022-09-12T06:28:16;41.35;;;25.52;;
22268;SDS011;11303;50.772;19.670;2022-09-12T06:30:18;40.55;;;28.92;;
22268;SDS011;11303;50.772;19.670;2022-09-12T06:32:28;35.97;;;26.38;;
22268;SDS011;11303;50.772;19.670;2022-09-12T06:34:30;36.33;;;26.98;;
22268;SDS011;11303;50.772;19.670;2022-09-12T06:36:33;29.15;;;22.13;;
22268;SDS011;11303;50.772;19.670;2022-09-12T06:38:39;28.52;;;20.88;;
22268;SDS011;11303;50.772;19.670;2022-09-12T06:40:41;27.48;;;19.35;;
22268;SDS011;11303;50.772;19.670;2022-09-12T06:42:46;28.95;;;20.15;;
22268;SDS011;11303;50.772;19.670;2022-09-12T06:44:48;26.35;;;19.58;;
22268;SDS011;11303;50.772;19.670;2022-09-12T06:46:50;18.95;;;15.50;;
22268;SDS011;11303;50.772;19.670;2022-09-12T06:48:57;18.48;;;12.35;;
22268;SDS011;11303;50.772;19.670;2022-09-12T06:51:00;17.15;;;12.65;;
22268;SDS011;11303;50.772;19.670;2022-09-12T06:53:03;16.13;;;12.40;;
22268;SDS011;11303;50.772;19.670;2022-09-12T06:55:05;15.13;;;12.15;;
22268;SDS011;11303;50.772;19.670;2022-09-12T06:57:07;17.45;;;11.98;;
22268;SDS011;11303;50.772;19.670;2022-09-12T06:59:09;13.68;;;11.32;;
22268;SDS011;11303;50.772;19.670;2022-09-12T07:01:11;12.18;;;9.18;;
22268;SDS011;11303;50.772;19.670;2022-09-12T07:03:15;14.60;;;9.48;;
22268;SDS011;11303;50.772;19.670;2022-09-12T07:05:16;12.32;;;7.97;;
22268;SDS011;11303;50.772;19.670;2022-09-12T07:07:18;12.98;;;7.97;;
22268;SDS011;11303;50.772;19.670;2022-09-12T07:09:20;9.68;;;8.68;;
22268;SDS011;11303;50.772;19.670;2022-09-12T07:11:22;14.05;;;8.60;;
22268;SDS011;11303;50.772;19.670;2022-09-12T07:13:25;11.85;;;8.20;;
22268;SDS011;11303;50.772;19.670;2022-09-12T07:15:27;10.98;;;7.00;;
22268;SDS011;11303;50.772;19.670;2022-09-12T07:17:29;10.27;;;7.78;;
22268;SDS011;11303;50.772;19.670;2022-09-12T07:19:30;8.68;;;7.22;;
22268;SDS011;11303;50.772;19.670;2022-09-12T07:21:32;9.68;;;8.02;;
22268;SDS011;11303;50.772;19.670;2022-09-12T07:23:36;13.13;;;7.47;;
22268;SDS011;11303;50.772;19.670;2022-09-12T07:25:38;10.10;;;6.80;;
22268;SDS011;11303;50.772;19.670;2022-09-12T07:27:40;12.45;;;7.47;;
22268;SDS011;11303;50.772;19.670;2022-09-12T07:29:41;9.23;;;6.28;;
22268;SDS011;11303;50.772;19.670;2022-09-12T07:31:44;8.88;;;5.93;;
22268;SDS011;11303;50.772;19.670;2022-09-12T07:33:46;9.13;;;5.22;;
22268;SDS011;11303;50.772;19.670;2022-09-12T07:35:53;7.47;;;4.82;;
22268;SDS011;11303;50.772;19.670;2022-09-12T07:37:55;8.00;;;4.57;;
22268;SDS011;11303;50.772;19.670;2022-09-12T07:39:56;18.88;;;5.15;;
22268;SDS011;11303;50.772;19.670;2022-09-12T07:41:59;6.03;;;3.80;;
22268;SDS011;11303;50.772;19.670;2022-09-12T07:44:01;8.15;;;5.15;;
22268;SDS011;11303;50.772;19.670;2022-09-12T07:46:03;10.10;;;4.82;;
22268;SDS011;11303;50.772;19.670;2022-09-12T07:48:06;9.23;;;5.88;;
22268;SDS011;11303;50.772;19.670;2022-09-12T07:50:07;9.35;;;6.13;;
22268;SDS011;11303;50.772;19.670;2022-09-12T07:52:09;7.07;;;5.55;;
22268;SDS011;11303;50.772;19.670;2022-09-12T07:54:11;11.20;;;4.05;;
22268;SDS011;11303;50.772;19.670;2022-09-12T07:56:12;5.28;;;3.40;;
22268;SDS011;11303;50.772;19.670;2022-09-12T07:58:14;7.40;;;3.45;;
22268;SDS011;11303;50.772;19.670;2022-09-12T08:00:15;4.05;;;3.20;;
22268;SDS011;11303;50.772;19.670;2022-09-12T08:02:18;7.95;;;4.43;;
22268;SDS011;11303;50.772;19.670;2022-09-12T08:04:19;6.80;;;5.13;;
22268;SDS011;11303;50.772;19.670;2022-09-12T08:06:21;11.95;;;4.60;;
22268;SDS011;11303;50.772;19.670;2022-09-12T08:08:24;7.05;;;4.30;;
22268;SDS011;11303;50.772;19.670;2022-09-12T08:10:25;8.60;;;4.90;;
22268;SDS011;11303;50.772;19.670;2022-09-12T08:12:27;6.72;;;4.45;;
22268;SDS011;11303;50.772;19.670;2022-09-12T08:14:29;8.70;;;5.65;;
22268;SDS011;11303;50.772;19.670;2022-09-12T08:16:31;7.82;;;4.60;;
22268;SDS011;11303;50.772;19.670;2022-09-12T08:18:33;5.32;;;4.07;;
22268;SDS011;11303;50.772;19.670;2022-09-12T08:20:35;6.55;;;3.78;;
22268;SDS011;11303;50.772;19.670;2022-09-12T08:22:37;5.75;;;3.10;;
22268;SDS011;11303;50.772;19.670;2022-09-12T08:24:40;4.65;;;3.05;;
22268;SDS011;11303;50.772;19.670;2022-09-12T08:26:42;5.28;;;2.92;;
22268;SDS011;11303;50.772;19.670;2022-09-12T08:28:44;4.20;;;3.00;;
22268;SDS011;11303;50.772;19.670;2022-09-12T08:30:46;8.05;;;2.85;;
22268;SDS011;11303;50.772;19.670;2022-09-12T08:32:48;6.10;;;3.03;;
22268;SDS011;11303;50.772;19.670;2022-09-12T08:34:49;4.60;;;2.83;;
22268;SDS011;11303;50.772;19.670;2022-09-12T08:36:51;4.63;;;3.20;;
22268;SDS011;11303;50.772;19.670;2022-09-12T08:38:55;6.03;;;3.17;;
22268;SDS011;11303;50.772;19.670;2022-09-12T08:41:47;5.05;;;2.88;;
22268;SDS011;11303;50.772;19.670;2022-09-12T08:46:00;5.57;;;2.90;;
22268;SDS011;11303;50.772;19.670;2022-09-12T08:48:15;7.25;;;2.80;;
22268;SDS011;11303;50.772;19.670;2022-09-12T08:50:17;3.60;;;2.15;;
22268;SDS011;11303;50.772;19.670;2022-09-12T08:52:22;3.05;;;2.58;;
22268;SDS011;11303;50.772;19.670;2022-09-12T08:54:27;4.43;;;2.42;;
22268;SDS011;11303;50.772;19.670;2022-09-12T08:56:30;5.38;;;2.50;;
22268;SDS011;11303;50.772;19.670;2022-09-12T08:58:40;4.85;;;2.53;;
22268;SDS011;11303;50.772;19.670;2022-09-12T09:05:48;5.53;;;2.50;;
22268;SDS011;11303;50.772;19.670;2022-09-12T09:10:20;9.98;;;1.80;;
22268;SDS011;11303;50.772;19.670;2022-09-12T09:15:06;3.03;;;2.10;;
22268;SDS011;11303;50.772;19.670;2022-09-12T09:19:27;6.18;;;2.00;;
22268;SDS011;11303;50.772;19.670;2022-09-12T09:21:33;5.20;;;2.30;;
22268;SDS011;11303;50.772;19.670;2022-09-12T09:23:41;2.90;;;1.73;;
22268;SDS011;11303;50.772;19.670;2022-09-12T09:27:52;18.35;;;9.07;;
22268;SDS011;11303;50.772;19.670;2022-09-12T09:29:58;39.13;;;18.08;;
22268;SDS011;11303;50.772;19.670;2022-09-12T09:32:02;11.32;;;5.93;;
22268;SDS011;11303;50.772;19.670;2022-09-12T09:34:08;4.57;;;1.80;;
22268;SDS011;11303;50.772;19.670;2022-09-12T09:43:21;6.13;;;2.17;;
22268;SDS011;11303;50.772;19.670;2022-09-12T09:45:24;2.80;;;1.75;;
22268;SDS011;11303;50.772;19.670;2022-09-12T09:47:29;5.80;;;1.50;;
22268;SDS011;11303;50.772;19.670;2022-09-12T09:49:32;3.25;;;2.00;;
22268;SDS011;11303;50.772;19.670;2022-09-12T09:51:35;5.28;;;1.73;;
22268;SDS011;11303;50.772;19.670;2022-09-12T09:55:50;3.78;;;1.35;;
22268;SDS011;11303;50.772;19.670;2022-09-12T09:57:54;3.42;;;1.65;;
22268;SDS011;11303;50.772;19.670;2022-09-12T09:59:55;1.60;;;1.05;;
22268;SDS011;11303;50.772;19.670;2022-09-12T10:04:04;2.85;;;1.40;;
22268;SDS011;11303;50.772;19.670;2022-09-12T10:06:06;5.65;;;1.67;;
22268;SDS011;11303;50.772;19.670;2022-09-12T10:08:24;6.35;;;2.20;;
22268;SDS011;11303;50.772;19.670;2022-09-12T10:10:26;1.85;;;1.40;;
22268;SDS011;11303;50.772;19.670;2022-09-12T10:12:28;6.82;;;1.40;;
22268;SDS011;11303;50.772;19.670;2022-09-12T10:14:31;3.17;;;1.38;;
22268;SDS011;11303;50.772;19.670;2022-09-12T10:16:49;3.05;;;1.63;;
22268;SDS011;11303;50.772;19.670;2022-09-12T10:18:58;2.17;;;1.30;;
22268;SDS011;11303;50.772;19.670;2022-09-12T10:21:05;2.47;;;1.42;;
22268;SDS011;11303;50.772;19.670;2022-09-12T10:25:31;2.10;;;1.27;;
22268;SDS011;11303;50.772;19.670;2022-09-12T10:27:32;1.73;;;0.93;;
22268;SDS011;11303;50.772;19.670;2022-09-12T10:34:37;3.05;;;1.20;;
22268;SDS011;11303;50.772;19.670;2022-09-12T10:36:42;4.10;;;1.10;;
22268;SDS011;11303;50.772;19.670;2022-09-12T10:38:47;5.22;;;1.40;;
22268;SDS011;11303;50.772;19.670;2022-09-12T10:40:58;2.17;;;1.10;;
22268;SDS011;11303;50.772;19.670;2022-09-12T10:43:16;4.88;;;1.08;;
22268;SDS011;11303;50.772;19.670;2022-09-12T10:45:20;3.25;;;1.30;;
22268;SDS011;11303;50.772;19.670;2022-09-12T10:47:26;3.42;;;1.20;;
22268;SDS011;11303;50.772;19.670;2022-09-12T10:49:31;5.20;;;1.65;;
22268;SDS011;11303;50.772;19.670;2022-09-12T10:51:38;7.25;;;2.78;;
22268;SDS011;11303;50.772;19.670;2022-09-12T10:53:40;4.82;;;1.63;;
22268;SDS011;11303;50.772;19.670;2022-09-12T10:55:54;2.15;;;1.35;;
22268;SDS011;11303;50.772;19.670;2022-09-12T10:58:12;4.43;;;1.40;;
22268;SDS011;11303;50.772;19.670;2022-09-12T11:00:21;4.53;;;1.70;;
22268;SDS011;11303;50.772;19.670;2022-09-12T11:02:29;2.92;;;1.60;;
22268;SDS011;11303;50.772;19.670;2022-09-12T11:16:13;1.92;;;1.35;;
22268;SDS011;11303;50.772;19.670;2022-09-12T11:21:06;3.60;;;1.25;;
22268;SDS011;11303;50.772;19.670;2022-09-12T11:30:07;3.17;;;1.48;;
22268;SDS011;11303;50.772;19.670;2022-09-12T11:37:10;4.95;;;1.40;;
22268;SDS011;11303;50.772;19.670;2022-09-12T11:39:38;1.27;;;1.17;;
22268;SDS011;11303;50.772;19.670;2022-09-12T11:41:41;4.38;;;1.40;;
22268;SDS011;11303;50.772;19.670;2022-09-12T11:43:47;3.30;;;1.40;;
22268;SDS011;11303;50.772;19.670;2022-09-12T11:45:53;3.58;;;1.40;;
22268;SDS011;11303;50.772;19.670;2022-09-12T11:47:56;2.40;;;1.13;;
22268;SDS011;11303;50.772;19.670;2022-09-12T11:50:02;3.80;;;1.05;;
22268;SDS011;11303;50.772;19.670;2022-09-12T11:52:10;3.00;;;1.10;;
22268;SDS011;11303;50.772;19.670;2022-09-12T11:56:42;3.20;;;1.20;;
22268;SDS011;11303;50.772;19.670;2022-09-12T11:58:52;1.42;;;1.00;;
22268;SDS011;11303;50.772;19.670;2022-09-12T12:01:12;2.30;;;1.23;;
22268;SDS011;11303;50.772;19.670;2022-09-12T12:07:47;4.07;;;1.50;;
22268;SDS011;11303;50.772;19.670;2022-09-12T12:09:52;2.95;;;1.48;;
22268;SDS011;11303;50.772;19.670;2022-09-12T12:11:55;4.20;;;1.48;;
22268;SDS011;11303;50.772;19.670;2022-09-12T12:13:58;4.50;;;1.40;;
22268;SDS011;11303;50.772;19.670;2022-09-12T12:16:11;2.15;;;1.40;;
22268;SDS011;11303;50.772;19.670;2022-09-12T12:18:23;3.10;;;1.40;;
22268;SDS011;11303;50.772;19.670;2022-09-12T12:20:26;3.45;;;1.40;;
22268;SDS011;11303;50.772;19.670;2022-09-12T12:22:28;2.45;;;1.30;;
22268;SDS011;11303;50.772;19.670;2022-09-12T12:24:31;2.40;;;1.20;;
22268;SDS011;11303;50.772;19.670;2022-09-12T12:26:53;3.25;;;1.23;;
22268;SDS011;11303;50.772;19.670;2022-09-12T12:28:57;1.98;;;1.20;;
22268;SDS011;11303;50.772;19.670;2022-09-12T12:31:00;3.45;;;1.58;;
22268;SDS011;11303;50.772;19.670;2022-09-12T12:41:43;1.90;;;1.20;;
22268;SDS011;11303;50.772;19.670;2022-09-12T12:45:58;3.63;;;1.45;;
22268;SDS011;11303;50.772;19.670;2022-09-12T12:48:09;4.28;;;1.50;;
22268;SDS011;11303;50.772;19.670;2022-09-12T12:52:16;4.00;;;1.50;;
22268;SDS011;11303;50.772;19.670;2022-09-12T12:54:32;7.30;;;1.90;;
22268;SDS011;11303;50.772;19.670;2022-09-12T12:56:48;2.95;;;1.33;;
22268;SDS011;11303;50.772;19.670;2022-09-12T12:58:58;2.70;;;1.33;;
22268;SDS011;11303;50.772;19.670;2022-09-12T13:03:19;4.25;;;1.20;;
22268;SDS011;11303;50.772;19.670;2022-09-12T13:05:38;2.67;;;1.13;;
22268;SDS011;11303;50.772;19.670;2022-09-12T13:07:41;2.80;;;1.20;;
22268;SDS011;11303;50.772;19.670;2022-09-12T13:09:44;3.72;;;1.50;;
22268;SDS011;11303;50.772;19.670;2022-09-12T13:11:58;1.38;;;1.17;;
22268;SDS011;11303;50.772;19.670;2022-09-12T13:14:08;1.70;;;1.30;;
22268;SDS011;11303;50.772;19.670;2022-09-12T13:16:53;5.00;;;1.60;;
22268;SDS011;11303;50.772;19.670;2022-09-12T13:21:06;4.53;;;1.30;;
22268;SDS011;11303;50.772;19.670;2022-09-12T13:23:23;1.13;;;1.02;;
22268;SDS011;11303;50.772;19.670;2022-09-12T13:25:33;4.03;;;1.42;;
22268;SDS011;11303;50.772;19.670;2022-09-12T13:27:35;2.22;;;1.20;;
22268;SDS011;11303;50.772;19.670;2022-09-12T13:29:37;1.90;;;1.33;;
22268;SDS011;11303;50.772;19.670;2022-09-12T13:31:39;3.03;;;1.55;;
22268;SDS011;11303;50.772;19.670;2022-09-12T13:33:51;1.83;;;1.40;;
22268;SDS011;11303;50.772;19.670;2022-09-12T13:38:37;2.47;;;1.70;;
22268;SDS011;11303;50.772;19.670;2022-09-12T13:40:56;3.65;;;1.70;;
22268;SDS011;11303;50.772;19.670;2022-09-12T13:43:08;6.63;;;1.60;;
22268;SDS011;11303;50.772;19.670;2022-09-12T13:45:22;4.03;;;1.80;;
22268;SDS011;11303;50.772;19.670;2022-09-12T13:47:29;3.05;;;1.70;;
22268;SDS011;11303;50.772;19.670;2022-09-12T13:49:38;3.60;;;1.77;;
22268;SDS011;11303;50.772;19.670;2022-09-12T13:51:40;2.65;;;1.50;;
22268;SDS011;11303;50.772;19.670;2022-09-12T13:53:43;2.25;;;1.60;;
22268;SDS011;11303;50.772;19.670;2022-09-12T13:55:53;3.10;;;1.48;;
22268;SDS011;11303;50.772;19.670;2022-09-12T13:58:02;4.13;;;1.80;;
22268;SDS011;11303;50.772;19.670;2022-09-12T14:00:14;3.97;;;1.75;;
22268;SDS011;11303;50.772;19.670;2022-09-12T14:02:21;2.08;;;1.40;;
22268;SDS011;11303;50.772;19.670;2022-09-12T14:04:24;3.33;;;1.60;;
22268;SDS011;11303;50.772;19.670;2022-09-12T14:06:48;3.40;;;1.95;;
22268;SDS011;11303;50.772;19.670;2022-09-12T14:08:52;1.95;;;1.40;;